Spaceon02064 — ASD — position and weather

sailwx.info

Track history (hours):
 
Tides and Currents Weather Stations Pressure Air Temp Water Temp Dewpoint Dewpoint Depression Visibility Wind Speed Wind Dir Waves Ship Positions

Spaceon02064

Last reported at 2016-Sep-27 00:23 UTC. Time now 2016-Sep-28 00:09 UTC.
Position N 37°42' E 121°09'.

Length 6 m.

Type: Ship. MMSI: 200902064.

Date/timePositionNaut miles runAvg speedWind from/ knotsBaromVisibWave heightAir tempDewpointWater temp
2016-Sep-27 00:23N 37°42' E 121°09'13 3.4
2016-Sep-26 20:33N 37°46' E 121°24'8 0.4
2016-Sep-26 02:11N 37°41' E 121°17'465100.4
2016-Sep-25 21:33N 29°57' E 122°04'81689.6
2016-Sep-25 12:26N 21°19' E 110°25'0 0.0
2016-Sep-25 11:26N 21°19' E 110°25'0 0.0
2016-Sep-25 10:33N 21°19' E 110°25'1148187.2
2016-Sep-25 04:26N 37°50' E 121°29'18831.8
2016-Sep-24 22:31N 38°59' E 117°45'183 9.5
2016-Sep-24 03:20N 37°46' E 121°20'3 3.7
2016-Sep-24 02:30N 37°46' E 121°24'10 1.1
2016-Sep-23 17:30N 37°42' E 121°12'8 8.5
2016-Sep-23 16:33N 37°41' E 121°22'8 8.4
2016-Sep-23 15:33N 37°39' E 121°32'3 1.5
2016-Sep-23 13:33N 37°38' E 121°35'13 1.8
2016-Sep-23 06:24N 37°46' E 121°23'6 0.2
2016-Sep-22 04:32N 37°42' E 121°27'3611492.3
2016-Sep-22 04:18N 31°41' E 121°11'361487.0
2016-Sep-22 03:33N 37°41' E 121°23'471152.5
2016-Sep-22 00:28N 29°52' E 122°08'7 7.4
2016-Sep-21 23:33N 29°58' E 122°04'11 8.3
2016-Sep-21 22:12N 30°07' E 121°57'457170.3
2016-Sep-21 19:31N 37°43' E 121°22'6 2.1
2016-Sep-21 16:31N 37°41' E 121°29'4 0.6
2016-Sep-21 09:34N 37°43' E 121°25'38068357.5
2016-Sep-21 09:33N 31°24' E 121°32'3 3.0
2016-Sep-21 08:28N 31°20' E 121°32'38314650.7
2016-Sep-21 08:27N 37°43' E 121°29'3 1.1
2016-Sep-21 05:33N 37°40' E 121°27'380177.1
2016-Sep-21 03:25N 31°20' E 121°32'38112148.6
2016-Sep-21 03:23N 37°42' E 121°17'381414.2
2016-Sep-21 02:27N 31°20' E 121°32'49455.4
2016-Sep-20 17:33N 38°58' E 117°46'1885176.8
2016-Sep-20 17:30N 37°42' E 121°25'38120802.0
2016-Sep-20 17:29N 31°20' E 121°32'380129.8
2016-Sep-20 14:33N 37°41' E 121°20'38015564.5
2016-Sep-20 14:32N 31°20' E 121°32'380379.6
2016-Sep-20 13:32N 37°40' E 121°19'3807349.1
2016-Sep-20 13:29N 31°20' E 121°32'378129.2
2016-Sep-20 10:33N 37°39' E 121°32'37813752.5
2016-Sep-20 10:32N 31°20' E 121°32'848381780.8
2016-Sep-20 10:31N 21°19' E 110°25'1138554.2
2016-Sep-20 08:28N 37°42' E 121°23'381343314.0
2016-Sep-20 08:28N 31°20' E 121°32'0 0.0
2016-Sep-20 07:31N 31°20' E 121°32'0 0.0
2016-Sep-20 06:28N 31°20' E 121°32'0 0.0
2016-Sep-20 02:30N 31°20' E 121°32'0 0.0
2016-Sep-19 23:32N 31°20' E 121°32'0 0.0
2016-Sep-19 19:32N 31°20' E 121°32'0 0.0
2016-Sep-19 18:32N 31°20' E 121°32'0 0.0
2016-Sep-19 16:30N 31°20' E 121°32'0 0.0
2016-Sep-19 14:30N 31°20' E 121°32'0 0.0
2016-Sep-19 13:30N 31°20' E 121°32'0 0.0
2016-Sep-19 12:32N 31°20' E 121°32'0 0.0
2016-Sep-19 11:32N 31°20' E 121°32'848169670.3
2016-Sep-19 11:32N 21°19' E 110°25'848394.9
2016-Sep-19 09:23N 31°20' E 121°32'1 0.7
2016-Sep-19 07:31N 31°21' E 121°31'0 0.0
2016-Sep-19 06:31N 31°21' E 121°31'1 0.2
2016-Sep-19 03:33N 31°21' E 121°32'1 0.7
2016-Sep-19 02:31N 31°20' E 121°32'5 0.4
2016-Sep-18 15:30N 31°16' E 121°32'845170.7
2016-Sep-18 10:33N 21°19' E 110°25'83916154.6
2016-Sep-18 10:30N 31°11' E 121°28'839884.6
2016-Sep-18 09:33N 21°19' E 110°25'84530.2
2016-Sep-17 05:33N 31°16' E 121°33'6 6.3
2016-Sep-17 04:33N 31°21' E 121°30'  
Track history (hours):
 
Tides and Currents Weather Stations Pressure Air Temp Water Temp Dewpoint Dewpoint Depression Visibility Wind Speed Wind Dir Waves Ship Positions

Spaceon02064

Last reported at 2016-Sep-27 00:23 UTC. Time now 2016-Sep-28 00:09 UTC.
Position N 37°42' E 121°09'.

Length 6 m.

Type: Ship. MMSI: 200902064.

Date/timePositionNaut miles runAvg speedWind from/ knotsBaromVisibWave heightAir tempDewpointWater temp
2016-Sep-27 00:23N 37°42' E 121°09'13 3.4
2016-Sep-26 20:33N 37°46' E 121°24'8 0.4
2016-Sep-26 02:11N 37°41' E 121°17'465100.4
2016-Sep-25 21:33N 29°57' E 122°04'81689.6
2016-Sep-25 12:26N 21°19' E 110°25'0 0.0
2016-Sep-25 11:26N 21°19' E 110°25'0 0.0
2016-Sep-25 10:33N 21°19' E 110°25'1148187.2
2016-Sep-25 04:26N 37°50' E 121°29'18831.8
2016-Sep-24 22:31N 38°59' E 117°45'183 9.5
2016-Sep-24 03:20N 37°46' E 121°20'3 3.7
2016-Sep-24 02:30N 37°46' E 121°24'10 1.1
2016-Sep-23 17:30N 37°42' E 121°12'8 8.5
2016-Sep-23 16:33N 37°41' E 121°22'8 8.4
2016-Sep-23 15:33N 37°39' E 121°32'3 1.5
2016-Sep-23 13:33N 37°38' E 121°35'13 1.8
2016-Sep-23 06:24N 37°46' E 121°23'6 0.2
2016-Sep-22 04:32N 37°42' E 121°27'3611492.3
2016-Sep-22 04:18N 31°41' E 121°11'361487.0
2016-Sep-22 03:33N 37°41' E 121°23'471152.5
2016-Sep-22 00:28N 29°52' E 122°08'7 7.4
2016-Sep-21 23:33N 29°58' E 122°04'11 8.3
2016-Sep-21 22:12N 30°07' E 121°57'457170.3
2016-Sep-21 19:31N 37°43' E 121°22'6 2.1
2016-Sep-21 16:31N 37°41' E 121°29'4 0.6
2016-Sep-21 09:34N 37°43' E 121°25'38068357.5
2016-Sep-21 09:33N 31°24' E 121°32'3 3.0
2016-Sep-21 08:28N 31°20' E 121°32'38314650.7
2016-Sep-21 08:27N 37°43' E 121°29'3 1.1
2016-Sep-21 05:33N 37°40' E 121°27'380177.1
2016-Sep-21 03:25N 31°20' E 121°32'38112148.6
2016-Sep-21 03:23N 37°42' E 121°17'381414.2
2016-Sep-21 02:27N 31°20' E 121°32'49455.4
2016-Sep-20 17:33N 38°58' E 117°46'1885176.8
2016-Sep-20 17:30N 37°42' E 121°25'38120802.0
2016-Sep-20 17:29N 31°20' E 121°32'380129.8
2016-Sep-20 14:33N 37°41' E 121°20'38015564.5
2016-Sep-20 14:32N 31°20' E 121°32'380379.6
2016-Sep-20 13:32N 37°40' E 121°19'3807349.1
2016-Sep-20 13:29N 31°20' E 121°32'378129.2
2016-Sep-20 10:33N 37°39' E 121°32'37813752.5
2016-Sep-20 10:32N 31°20' E 121°32'848381780.8
2016-Sep-20 10:31N 21°19' E 110°25'1138554.2
2016-Sep-20 08:28N 37°42' E 121°23'381343314.0
2016-Sep-20 08:28N 31°20' E 121°32'0 0.0
2016-Sep-20 07:31N 31°20' E 121°32'0 0.0
2016-Sep-20 06:28N 31°20' E 121°32'0 0.0
2016-Sep-20 02:30N 31°20' E 121°32'0 0.0
2016-Sep-19 23:32N 31°20' E 121°32'0 0.0
2016-Sep-19 19:32N 31°20' E 121°32'0 0.0
2016-Sep-19 18:32N 31°20' E 121°32'0 0.0
2016-Sep-19 16:30N 31°20' E 121°32'0 0.0
2016-Sep-19 14:30N 31°20' E 121°32'0 0.0
2016-Sep-19 13:30N 31°20' E 121°32'0 0.0
2016-Sep-19 12:32N 31°20' E 121°32'0 0.0
2016-Sep-19 11:32N 31°20' E 121°32'848169670.3
2016-Sep-19 11:32N 21°19' E 110°25'848394.9
2016-Sep-19 09:23N 31°20' E 121°32'1 0.7
2016-Sep-19 07:31N 31°21' E 121°31'0 0.0
2016-Sep-19 06:31N 31°21' E 121°31'1 0.2
2016-Sep-19 03:33N 31°21' E 121°32'1 0.7
2016-Sep-19 02:31N 31°20' E 121°32'5 0.4
2016-Sep-18 15:30N 31°16' E 121°32'845170.7
2016-Sep-18 10:33N 21°19' E 110°25'83916154.6
2016-Sep-18 10:30N 31°11' E 121°28'839884.6
2016-Sep-18 09:33N 21°19' E 110°25'84530.2
2016-Sep-17 05:33N 31°16' E 121°33'6 6.3
2016-Sep-17 04:33N 31°21' E 121°30'  

Dump ship's entire track history